createdAt,value
2018-11-26T00:00:06.832Z,6.00
2018-11-26T00:02:35.676Z,6.20
2018-11-26T00:05:04.511Z,6.20
2018-11-26T00:07:33.342Z,6.30
2018-11-26T00:10:02.913Z,6.10
2018-11-26T00:12:31.753Z,6.10
2018-11-26T00:15:01.319Z,6.10
2018-11-26T00:17:30.149Z,6.10
2018-11-26T00:19:58.992Z,6.10
2018-11-26T00:22:27.815Z,6.20
2018-11-26T00:24:56.646Z,6.10
2018-11-26T00:27:25.531Z,6.10
2018-11-26T00:29:54.315Z,6.10
2018-11-26T00:32:23.144Z,6.00
2018-11-26T00:34:51.984Z,5.90
2018-11-26T00:37:20.822Z,6.00
2018-11-26T00:39:49.648Z,6.00
2018-11-26T00:42:19.220Z,6.00
2018-11-26T00:44:48.060Z,6.00
2018-11-26T00:47:16.895Z,6.00
2018-11-26T00:49:45.721Z,6.00
2018-11-26T00:52:14.566Z,6.00
2018-11-26T00:54:43.422Z,6.00
2018-11-26T00:57:12.256Z,5.90
2018-11-26T00:59:41.095Z,6.00
2018-11-26T01:02:09.938Z,6.10
2018-11-26T01:07:08.184Z,6.10
2018-11-26T01:09:37.008Z,6.10
2018-11-26T01:12:05.844Z,6.10
2018-11-26T01:14:34.676Z,6.00
2018-11-26T01:17:03.500Z,6.00
2018-11-26T01:19:33.245Z,6.00
2018-11-26T01:22:02.076Z,6.10
2018-11-26T01:24:30.910Z,6.10
2018-11-26T01:26:59.752Z,6.10
2018-11-26T01:29:28.575Z,6.10
2018-11-26T01:31:57.399Z,6.10
2018-11-26T01:34:26.232Z,6.00
2018-11-26T01:36:55.068Z,6.10
2018-11-26T01:39:23.901Z,6.10
2018-11-26T01:41:52.738Z,6.10
2018-11-26T01:44:21.583Z,6.20
2018-11-26T01:46:51.190Z,6.20
2018-11-26T01:49:20.019Z,6.20
2018-11-26T01:51:48.844Z,6.20
2018-11-26T01:54:17.671Z,6.30
2018-11-26T01:56:47.244Z,6.30
2018-11-26T01:59:16.070Z,6.30
2018-11-26T02:01:45.641Z,6.20
2018-11-26T02:04:14.470Z,6.20
2018-11-26T02:06:43.300Z,6.20
2018-11-26T02:09:12.145Z,6.30
2018-11-26T02:11:41.719Z,6.30
2018-11-26T02:14:10.545Z,6.30
2018-11-26T02:16:39.380Z,6.30
2018-11-26T02:19:08.203Z,6.30
2018-11-26T02:21:37.039Z,6.30
2018-11-26T02:24:05.877Z,6.30
2018-11-26T02:26:34.703Z,6.20
2018-11-26T02:29:03.570Z,6.30
2018-11-26T02:31:32.358Z,6.30
2018-11-26T02:34:01.951Z,6.30
2018-11-26T02:36:30.786Z,6.40
2018-11-26T02:38:59.607Z,6.40
2018-11-26T02:41:28.444Z,6.40
2018-11-26T02:43:57.278Z,6.40
2018-11-26T02:46:26.116Z,6.40
2018-11-26T02:48:54.964Z,6.50
2018-11-26T02:51:23.776Z,6.50
2018-11-26T02:53:52.607Z,6.40
2018-11-26T02:56:21.429Z,6.40
2018-11-26T02:58:50.265Z,6.40
2018-11-26T03:01:19.095Z,6.30
2018-11-26T03:03:47.925Z,6.40
2018-11-26T03:06:17.495Z,6.40
2018-11-26T03:08:46.323Z,6.40
2018-11-26T03:11:15.149Z,6.40
2018-11-26T03:13:43.984Z,6.40
2018-11-26T03:16:12.827Z,6.40
2018-11-26T03:18:41.676Z,6.50
2018-11-26T03:21:10.505Z,6.50
2018-11-26T03:23:39.323Z,6.60
2018-11-26T03:26:08.173Z,6.60
2018-11-26T03:28:37.005Z,6.60
2018-11-26T03:31:05.851Z,6.60
2018-11-26T03:33:34.681Z,6.50
2018-11-26T03:36:03.507Z,6.60
2018-11-26T03:38:32.341Z,6.60
2018-11-26T03:41:01.169Z,6.60
2018-11-26T03:43:30.010Z,6.60
2018-11-26T03:45:58.843Z,6.70
2018-11-26T03:48:28.425Z,6.70
2018-11-26T03:50:57.254Z,6.70
2018-11-26T03:53:26.082Z,6.70
2018-11-26T03:55:54.911Z,6.70
2018-11-26T03:58:23.740Z,6.70
2018-11-26T04:00:52.567Z,6.70
2018-11-26T04:03:21.412Z,6.70
2018-11-26T04:05:50.254Z,6.70
2018-11-26T04:08:19.091Z,6.70
2018-11-26T04:10:47.927Z,6.70
2018-11-26T04:13:16.755Z,6.70
2018-11-26T04:15:45.589Z,6.60
2018-11-26T04:18:14.414Z,6.60
2018-11-26T04:20:43.238Z,6.60
2018-11-26T04:23:12.062Z,6.60
2018-11-26T04:25:40.889Z,6.70
2018-11-26T04:28:10.453Z,6.70
2018-11-26T04:30:39.269Z,6.70
2018-11-26T04:33:08.108Z,6.70
2018-11-26T04:35:36.930Z,6.70
2018-11-26T04:38:05.753Z,6.70
2018-11-26T04:40:34.572Z,6.70
2018-11-26T04:43:03.398Z,6.70
2018-11-26T04:45:32.217Z,6.70
2018-11-26T04:48:01.788Z,6.60
2018-11-26T04:50:30.640Z,6.70
2018-11-26T04:53:00.178Z,6.70
2018-11-26T04:55:29.001Z,6.70
2018-11-26T04:57:58.566Z,6.60
2018-11-26T05:00:27.389Z,6.70
2018-11-26T05:02:56.214Z,6.60
2018-11-26T05:05:25.086Z,6.60
2018-11-26T05:07:54.625Z,6.60
2018-11-26T05:10:23.430Z,6.60
2018-11-26T05:12:52.256Z,6.60
2018-11-26T05:15:21.095Z,6.60
2018-11-26T05:17:49.929Z,6.70
2018-11-26T05:20:18.768Z,6.70
2018-11-26T05:22:47.604Z,6.70
2018-11-26T05:25:16.444Z,6.70
2018-11-26T05:27:45.273Z,6.70
2018-11-26T05:30:14.105Z,6.70
2018-11-26T05:32:42.926Z,6.70
2018-11-26T05:35:11.757Z,6.70
2018-11-26T05:37:41.331Z,6.60
2018-11-26T05:40:10.165Z,6.70
2018-11-26T05:42:38.992Z,6.60
2018-11-26T05:45:07.819Z,6.60
2018-11-26T05:47:36.653Z,6.60
2018-11-26T05:50:05.477Z,6.50
2018-11-26T05:55:04.490Z,6.50
2018-11-26T05:57:33.322Z,6.60
2018-11-26T06:00:02.159Z,6.60
2018-11-26T06:02:30.984Z,6.60
2018-11-26T06:05:00.562Z,6.60
2018-11-26T06:07:29.448Z,6.60
2018-11-26T06:09:58.287Z,6.60
2018-11-26T06:12:27.121Z,6.60
2018-11-26T06:14:55.945Z,6.50
2018-11-26T06:17:24.784Z,6.50
2018-11-26T06:19:53.610Z,6.50
2018-11-26T06:22:22.430Z,6.50
2018-11-26T06:24:51.262Z,6.50
2018-11-26T06:27:20.089Z,6.60
2018-11-26T06:29:49.653Z,6.50
2018-11-26T06:32:18.510Z,6.60
2018-11-26T06:34:47.348Z,6.60
2018-11-26T06:37:16.201Z,6.50
2018-11-26T06:39:45.042Z,6.60
2018-11-26T06:42:13.880Z,6.60
2018-11-26T06:44:42.709Z,6.60
2018-11-26T06:47:11.589Z,6.60
2018-11-26T06:49:40.426Z,6.50
2018-11-26T06:52:09.259Z,6.50
2018-11-26T06:54:38.101Z,6.40
2018-11-26T06:57:07.686Z,6.40
2018-11-26T06:59:36.522Z,6.40
2018-11-26T07:02:05.352Z,6.40
2018-11-26T07:04:34.173Z,6.40
2018-11-26T07:07:03.808Z,6.50
2018-11-26T07:09:32.641Z,6.60
2018-11-26T07:12:01.493Z,6.50
2018-11-26T07:14:30.319Z,6.50
2018-11-26T07:16:59.152Z,6.50
2018-11-26T07:19:27.994Z,6.50
2018-11-26T07:21:56.819Z,6.60
2018-11-26T07:24:26.407Z,6.50
2018-11-26T07:26:55.254Z,6.60
2018-11-26T07:29:24.397Z,6.60
2018-11-26T07:31:53.675Z,6.70
2018-11-26T07:36:51.959Z,6.70
2018-11-26T07:39:20.787Z,6.70
2018-11-26T07:41:50.369Z,6.60
2018-11-26T07:44:19.219Z,6.70
2018-11-26T07:46:48.050Z,6.70
2018-11-26T07:51:47.059Z,6.60
2018-11-26T07:54:15.900Z,6.70
2018-11-26T07:56:44.768Z,6.70
2018-11-26T07:59:13.621Z,6.80
2018-11-26T08:01:42.477Z,6.80
2018-11-26T08:04:11.310Z,6.80
2018-11-26T08:06:40.152Z,6.70
2018-11-26T08:09:08.995Z,6.70
2018-11-26T08:11:37.833Z,6.70
2018-11-26T08:14:06.665Z,6.60
2018-11-26T08:16:35.544Z,6.60
2018-11-26T08:19:04.347Z,6.60
2018-11-26T08:21:33.919Z,6.60
2018-11-26T08:24:02.758Z,6.50
2018-11-26T08:26:31.595Z,6.50
2018-11-26T08:29:00.422Z,6.50
2018-11-26T08:31:29.262Z,6.50
2018-11-26T08:33:58.109Z,6.60
2018-11-26T08:36:27.679Z,6.70
2018-11-26T08:38:56.520Z,6.80
2018-11-26T08:41:25.356Z,6.70
2018-11-26T08:43:54.190Z,6.70
2018-11-26T08:46:23.041Z,6.70
2018-11-26T08:48:51.875Z,6.70
2018-11-26T08:51:20.719Z,6.70
2018-11-26T08:53:49.554Z,6.70
2018-11-26T08:56:18.384Z,6.70
2018-11-26T08:58:47.222Z,6.80
2018-11-26T09:01:16.066Z,6.80
2018-11-26T09:03:44.909Z,6.80
2018-11-26T09:06:13.739Z,6.80
2018-11-26T09:08:42.569Z,6.80
2018-11-26T09:11:12.148Z,6.80
2018-11-26T09:13:40.979Z,6.80
2018-11-26T09:16:09.857Z,6.80
2018-11-26T09:18:38.655Z,6.80
2018-11-26T09:21:07.499Z,6.80
2018-11-26T09:23:36.323Z,6.80
2018-11-26T09:26:05.893Z,6.80
2018-11-26T09:28:34.745Z,6.90
2018-11-26T09:31:03.596Z,6.80
2018-11-26T09:33:33.199Z,6.80
2018-11-26T09:36:02.022Z,6.80
2018-11-26T09:38:30.866Z,6.80
2018-11-26T09:40:59.702Z,6.90
2018-11-26T09:43:28.545Z,6.90
2018-11-26T09:45:58.109Z,6.80
2018-11-26T09:48:26.968Z,6.90
2018-11-26T09:50:55.807Z,6.90
2018-11-26T09:53:24.651Z,6.90
2018-11-26T09:55:53.490Z,7.00
2018-11-26T09:58:22.316Z,7.00
2018-11-26T10:00:51.151Z,7.00
2018-11-26T10:03:19.995Z,7.00
2018-11-26T10:05:48.847Z,7.00
2018-11-26T10:08:17.679Z,7.00
2018-11-26T10:10:46.515Z,7.00
2018-11-26T10:13:15.363Z,7.00
2018-11-26T10:15:44.185Z,7.00
2018-11-26T10:18:13.012Z,7.10
2018-11-26T10:20:41.846Z,7.10
2018-11-26T10:23:10.677Z,7.00
2018-11-26T10:25:39.508Z,7.10
2018-11-26T10:28:08.346Z,7.10
2018-11-26T10:30:37.182Z,7.00
2018-11-26T10:33:06.024Z,7.00
2018-11-26T10:35:34.871Z,7.00
2018-11-26T10:38:03.722Z,7.00
2018-11-26T10:40:32.585Z,7.00
2018-11-26T10:43:01.417Z,7.10
2018-11-26T10:45:30.264Z,7.10
2018-11-26T10:47:59.087Z,7.10
2018-11-26T10:50:28.657Z,7.10
2018-11-26T10:52:57.498Z,7.20
2018-11-26T10:55:26.332Z,7.20
2018-11-26T10:57:55.182Z,7.20
2018-11-26T11:00:24.020Z,7.20
2018-11-26T11:02:52.861Z,7.20
2018-11-26T11:05:21.695Z,7.30
2018-11-26T11:07:50.558Z,7.30
2018-11-26T11:10:19.380Z,7.20
2018-11-26T11:12:48.230Z,7.20
2018-11-26T11:15:17.055Z,7.20
2018-11-26T11:17:45.914Z,7.20
2018-11-26T11:20:14.755Z,7.20
2018-11-26T11:22:43.596Z,7.10
2018-11-26T11:25:12.446Z,7.10
2018-11-26T11:27:42.037Z,7.10
2018-11-26T11:30:10.888Z,7.20
2018-11-26T11:32:39.752Z,7.20
2018-11-26T11:35:08.595Z,7.20
2018-11-26T11:37:37.462Z,7.20
2018-11-26T11:40:06.317Z,7.30
2018-11-26T11:42:35.164Z,7.20
2018-11-26T11:47:33.422Z,7.30
2018-11-26T11:50:02.266Z,7.30
2018-11-26T11:52:31.855Z,7.20
2018-11-26T11:55:00.736Z,7.20
2018-11-26T11:57:29.562Z,7.30
2018-11-26T11:59:58.396Z,7.20
2018-11-26T12:02:27.225Z,7.20
2018-11-26T12:04:56.802Z,7.20
2018-11-26T12:07:25.641Z,7.30
2018-11-26T12:09:54.484Z,7.30
2018-11-26T12:12:23.339Z,7.30
2018-11-26T12:14:52.189Z,7.30
2018-11-26T12:17:21.025Z,7.30
2018-11-26T12:19:49.870Z,7.20
2018-11-26T12:22:19.448Z,7.20
2018-11-26T12:24:48.278Z,7.30
2018-11-26T12:27:17.122Z,7.30
2018-11-26T12:29:45.960Z,7.30
2018-11-26T12:32:14.810Z,7.30
2018-11-26T12:34:43.661Z,7.30
2018-11-26T12:37:12.513Z,7.40
2018-11-26T12:39:41.360Z,7.30
2018-11-26T12:42:10.198Z,7.30
2018-11-26T12:44:39.046Z,7.30
2018-11-26T12:47:08.418Z,7.40
2018-11-26T12:49:37.273Z,7.40
2018-11-26T12:52:06.111Z,7.40
2018-11-26T12:54:34.962Z,7.40
2018-11-26T12:57:03.806Z,7.40
2018-11-26T12:59:32.640Z,7.40
2018-11-26T13:02:01.488Z,7.40
2018-11-26T13:04:30.324Z,7.40
2018-11-26T13:06:59.143Z,7.40
2018-11-26T13:09:27.989Z,7.40
2018-11-26T13:11:56.825Z,7.40
2018-11-26T13:14:25.681Z,7.40
2018-11-26T13:16:54.535Z,7.40
2018-11-26T13:19:23.381Z,7.40
2018-11-26T13:21:52.229Z,7.40
2018-11-26T13:24:21.052Z,7.40
2018-11-26T13:26:50.639Z,7.40
2018-11-26T13:29:19.473Z,7.50
2018-11-26T13:31:48.314Z,7.50
2018-11-26T13:34:17.164Z,7.40
2018-11-26T13:36:46.013Z,7.50
2018-11-26T13:39:14.864Z,7.40
2018-11-26T13:41:43.695Z,7.50
2018-11-26T13:44:12.529Z,7.40
2018-11-26T13:46:41.375Z,7.50
2018-11-26T13:49:10.957Z,7.40
2018-11-26T13:51:39.791Z,7.50
2018-11-26T13:54:08.621Z,7.40
2018-11-26T13:56:37.452Z,7.40
2018-11-26T13:59:06.293Z,7.40
2018-11-26T14:01:35.148Z,7.40
2018-11-26T14:04:03.972Z,7.40
2018-11-26T14:06:32.802Z,7.40
2018-11-26T14:09:01.658Z,7.40
2018-11-26T14:11:30.492Z,7.40
2018-11-26T14:13:59.327Z,7.40
2018-11-26T14:16:28.168Z,7.40
2018-11-26T14:18:56.998Z,7.40
2018-11-26T14:21:25.825Z,7.40
2018-11-26T14:23:55.415Z,7.30
2018-11-26T14:26:24.275Z,7.30
2018-11-26T14:28:53.095Z,7.30
2018-11-26T14:31:21.952Z,7.30
2018-11-26T14:33:50.792Z,7.30
2018-11-26T14:36:20.378Z,7.30
2018-11-26T14:38:49.212Z,7.40
2018-11-26T14:41:18.779Z,7.40
2018-11-26T14:43:47.636Z,7.40
2018-11-26T14:46:16.489Z,7.40
2018-11-26T14:48:45.318Z,7.40
2018-11-26T14:51:14.142Z,7.40
2018-11-26T14:53:42.979Z,7.30
2018-11-26T14:56:11.817Z,7.30
2018-11-26T14:58:40.657Z,7.30
2018-11-26T15:01:09.491Z,7.40
2018-11-26T15:03:38.322Z,7.40
2018-11-26T15:06:07.160Z,7.30
2018-11-26T15:08:35.995Z,7.30
2018-11-26T15:11:04.850Z,7.30
2018-11-26T15:13:33.696Z,7.30
2018-11-26T15:16:02.532Z,7.20
2018-11-26T15:18:31.419Z,7.20
2018-11-26T15:21:00.252Z,7.30
2018-11-26T15:23:29.102Z,7.30
2018-11-26T15:25:57.948Z,7.40
2018-11-26T15:28:26.793Z,7.40
2018-11-26T15:30:55.629Z,7.30
2018-11-26T15:33:24.491Z,7.30
2018-11-26T15:35:53.318Z,7.20
2018-11-26T15:38:22.152Z,7.20
2018-11-26T15:40:51.046Z,7.20
2018-11-26T15:43:19.847Z,7.20
2018-11-26T15:45:48.681Z,7.10
2018-11-26T15:48:17.504Z,7.10
2018-11-26T15:50:46.336Z,7.10
2018-11-26T15:53:15.165Z,7.10
2018-11-26T15:55:43.996Z,7.10
2018-11-26T15:58:12.867Z,7.00
2018-11-26T16:00:41.675Z,7.00
2018-11-26T16:03:10.512Z,7.00
2018-11-26T16:05:39.361Z,6.90
2018-11-26T16:08:08.201Z,7.00
2018-11-26T16:10:37.041Z,7.00
2018-11-26T16:13:05.876Z,7.00
2018-11-26T16:15:34.718Z,7.00
2018-11-26T16:18:03.548Z,7.00
2018-11-26T16:20:32.393Z,7.00
2018-11-26T16:23:01.217Z,7.00
2018-11-26T16:25:30.067Z,6.90
2018-11-26T16:27:58.895Z,7.00
2018-11-26T16:30:27.738Z,7.00
2018-11-26T16:32:56.581Z,7.00
2018-11-26T16:35:25.447Z,7.00
2018-11-26T16:37:54.287Z,7.10
2018-11-26T16:40:23.865Z,7.00
2018-11-26T16:42:52.704Z,7.10
2018-11-26T16:45:21.543Z,7.00
2018-11-26T16:47:50.422Z,7.00
2018-11-26T16:50:19.224Z,6.90
2018-11-26T16:52:48.057Z,6.90
2018-11-26T16:55:16.894Z,6.80
2018-11-26T16:57:45.730Z,6.80
2018-11-26T17:00:14.569Z,6.80
2018-11-26T17:02:43.421Z,6.70
2018-11-26T17:05:12.275Z,6.70
2018-11-26T17:07:41.860Z,6.70
2018-11-26T17:10:10.686Z,6.70
2018-11-26T17:12:39.533Z,6.70
2018-11-26T17:15:08.386Z,6.70
2018-11-26T17:17:37.265Z,6.70
2018-11-26T17:20:06.109Z,6.70
2018-11-26T17:22:34.956Z,6.60
2018-11-26T17:25:03.800Z,6.60
2018-11-26T17:27:33.378Z,6.50
2018-11-26T17:30:02.260Z,6.60
2018-11-26T17:32:31.097Z,6.50
2018-11-26T17:34:59.923Z,6.50
2018-11-26T17:37:28.762Z,6.50
2018-11-26T17:39:58.347Z,6.60
2018-11-26T17:42:27.177Z,6.60
2018-11-26T17:44:56.032Z,6.60
2018-11-26T17:47:24.869Z,6.70
2018-11-26T17:49:53.713Z,6.70
2018-11-26T17:54:52.723Z,6.70
2018-11-26T17:57:21.556Z,6.70
2018-11-26T17:59:50.422Z,6.60
2018-11-26T18:02:20.463Z,6.60
2018-11-26T18:04:49.310Z,6.60
2018-11-26T18:07:18.164Z,6.60
2018-11-26T18:09:47.010Z,6.70
2018-11-26T18:12:15.871Z,6.70
2018-11-26T18:14:44.718Z,6.70
2018-11-26T18:17:13.557Z,6.70
2018-11-26T18:19:42.428Z,6.60
2018-11-26T18:22:11.262Z,6.60
2018-11-26T18:24:40.118Z,6.60
2018-11-26T18:27:08.951Z,6.60
2018-11-26T18:29:37.800Z,6.50
2018-11-26T18:32:06.638Z,6.60
2018-11-26T18:34:35.478Z,6.70
2018-11-26T18:39:33.756Z,6.60
2018-11-26T18:42:02.589Z,6.50
2018-11-26T18:44:31.435Z,6.60
2018-11-26T18:47:00.276Z,6.60
2018-11-26T18:49:29.109Z,6.60
2018-11-26T18:51:57.983Z,6.60
2018-11-26T18:54:26.821Z,6.50
2018-11-26T18:56:55.678Z,6.50
2018-11-26T18:59:24.507Z,6.50
2018-11-26T19:01:53.337Z,6.40
2018-11-26T19:04:22.205Z,6.40
2018-11-26T19:06:51.047Z,6.40
2018-11-26T19:09:19.888Z,6.50
2018-11-26T19:11:48.720Z,6.50
2018-11-26T19:14:17.556Z,6.50
2018-11-26T19:16:46.389Z,6.40
2018-11-26T19:19:15.222Z,6.40
2018-11-26T19:21:44.048Z,6.40
2018-11-26T19:24:12.883Z,6.40
2018-11-26T19:26:42.552Z,6.40
2018-11-26T19:29:11.872Z,6.40
2018-11-26T19:31:41.749Z,6.40
2018-11-26T19:34:10.620Z,6.30
2018-11-26T19:36:39.759Z,6.30
2018-11-26T19:39:08.562Z,6.30
2018-11-26T19:41:37.448Z,6.30
2018-11-26T19:44:06.289Z,6.30
2018-11-26T19:46:35.132Z,6.30
2018-11-26T19:49:03.978Z,6.30
2018-11-26T19:51:32.840Z,6.30
2018-11-26T19:54:02.435Z,6.40
2018-11-26T19:56:31.279Z,6.40
2018-11-26T19:59:00.175Z,6.40
2018-11-26T20:01:29.069Z,6.40
2018-11-26T20:03:57.886Z,6.40
2018-11-26T20:06:26.745Z,6.40
2018-11-26T20:08:55.598Z,6.50
2018-11-26T20:11:24.466Z,6.50
2018-11-26T20:13:54.079Z,6.50
2018-11-26T20:16:22.919Z,6.50
2018-11-26T20:18:51.765Z,6.50
2018-11-26T20:21:20.632Z,6.40
2018-11-26T20:23:50.246Z,6.40
2018-11-26T20:26:19.835Z,6.40
2018-11-26T20:28:48.695Z,6.30
2018-11-26T20:31:17.541Z,6.30
2018-11-26T20:33:46.430Z,6.30
2018-11-26T20:36:15.312Z,6.20
2018-11-26T20:38:44.110Z,6.20
2018-11-26T20:41:12.991Z,6.20
2018-11-26T20:43:42.577Z,6.20
2018-11-26T20:48:40.899Z,6.10
2018-11-26T20:51:09.719Z,6.10
2018-11-26T20:53:39.476Z,6.00
2018-11-26T20:56:07.407Z,6.00
2018-11-26T20:58:36.245Z,6.10
2018-11-26T21:01:05.836Z,6.00
2018-11-26T21:03:34.686Z,6.10
2018-11-26T21:06:03.519Z,6.20
2018-11-26T21:08:32.365Z,6.10
2018-11-26T21:11:01.208Z,6.00
2018-11-26T21:13:30.925Z,6.00
2018-11-26T21:16:00.518Z,6.10
2018-11-26T21:20:58.823Z,6.10
2018-11-26T21:23:27.670Z,6.00
2018-11-26T21:25:56.521Z,6.10
2018-11-26T21:28:25.423Z,6.10
2018-11-26T21:30:54.307Z,6.10
2018-11-26T21:33:23.077Z,6.10
2018-11-26T21:35:51.941Z,6.00
2018-11-26T21:38:20.774Z,6.00
2018-11-26T21:40:49.621Z,6.00
2018-11-26T21:43:18.492Z,6.00
2018-11-26T21:45:47.329Z,6.10
2018-11-26T21:48:16.186Z,6.10
2018-11-26T21:50:45.001Z,6.10
2018-11-26T21:53:13.887Z,6.10
2018-11-26T21:55:43.450Z,6.10
2018-11-26T21:58:12.284Z,6.20
2018-11-26T22:00:56.069Z,6.20
2018-11-26T22:03:30.338Z,6.20
2018-11-26T22:05:53.775Z,6.10
2018-11-26T22:08:22.615Z,6.00
2018-11-26T22:10:51.462Z,6.00
2018-11-26T22:13:20.341Z,6.00
2018-11-26T22:15:49.188Z,6.10
2018-11-26T22:18:18.026Z,6.00
2018-11-26T22:20:47.605Z,6.00
2018-11-26T22:23:16.450Z,5.90
2018-11-26T22:25:45.292Z,6.00
2018-11-26T22:28:14.123Z,5.90
2018-11-26T22:30:42.973Z,5.90
2018-11-26T22:33:11.864Z,5.90
2018-11-26T22:35:40.673Z,6.00
2018-11-26T22:38:10.258Z,5.90
2018-11-26T22:40:39.107Z,5.90
2018-11-26T22:43:07.977Z,6.00
2018-11-26T22:45:36.828Z,5.90
2018-11-26T22:48:06.425Z,5.80
2018-11-26T22:50:35.265Z,5.90
2018-11-26T22:53:04.108Z,5.80
2018-11-26T22:55:32.951Z,5.80
2018-11-26T22:58:01.794Z,5.80
2018-11-26T23:00:30.633Z,5.80
2018-11-26T23:02:59.504Z,5.90
2018-11-26T23:05:28.351Z,5.80
2018-11-26T23:07:57.196Z,5.80
2018-11-26T23:10:26.067Z,5.70
2018-11-26T23:12:54.921Z,5.60
2018-11-26T23:15:23.750Z,5.60
2018-11-26T23:17:52.593Z,5.60
2018-11-26T23:20:21.417Z,5.60
2018-11-26T23:22:50.267Z,5.60
2018-11-26T23:25:19.108Z,5.60
2018-11-26T23:27:47.963Z,5.60
2018-11-26T23:32:46.248Z,5.50
2018-11-26T23:35:15.086Z,5.60
2018-11-26T23:37:43.932Z,5.60
2018-11-26T23:42:42.201Z,5.50
2018-11-26T23:45:11.041Z,5.60
2018-11-26T23:47:39.893Z,5.50
2018-11-26T23:50:08.735Z,5.50
2018-11-26T23:52:38.798Z,5.50
2018-11-26T23:55:06.418Z,5.60
2018-11-26T23:57:35.266Z,5.50
